NGTA/TRW METAR and TAF weather

Enter ICAO airport designator
Station Type Date Time Source
NGTA METAR 2019/06/18 14:00 UTC NOAA

NGTA 181400Z 07003KT 9999 VCSH FEW016CB FEW018TCU BKN300 28/25 Q1008 RMK CB9 AT NE AND SHOWERS


Station Type Date Time Source
NGTA Decoded METAR 2019/06/18 14:00 UTC NOAA

Tarawa, Kiribati (NGTA) 01-21N 172-55E 4M
Jun 18, 2019 - 10:00 AM EDT / 2019.06.18 1400 UTC
Wind: from the ENE (070 degrees) at 3 MPH (3 KT):0
Visibility: greater than 7 mile(s):0
Sky conditions: mostly cloudy
Weather: showers in the vicinity; Cumulonimbus clouds, towering cumulus clouds observed
Temperature: 82 F (28 C)
Dew Point: 77 F (25 C)
Relative Humidity: 83%
Pressure (altimeter): 29.77 in. Hg (1008 hPa)
ob: NGTA 181400Z 07003KT 9999 VCSH FEW016CB FEW018TCU BKN300 28/25 Q1008 RMK CB9 AT NE AND SHOWERS
cycle: 14

Station Type Date Time Source
NGTA TAF 2019/06/18 12:15 UTC NOAA

TAF NGTA 181110Z 1812/1912 05006KT 9999 -SHRA SCT019 SCT045 PROB40
TEMPO 1812/1818 5000 TSRA BKN015 FEW017CB
TEMPO 1818/1912 3000 TSRA BKN015 FEW017CB

Example: see airport list